Aérodrome :
LOGIN :

S'inscrire | Disclaimer

   EN    FR    IT 

 










Légende :    VFR   VFR Marginal   IFR   IFR Intensif   IFR Très Intensif
Visi : 
Plafond : 
>= 8 km
>= 3000ft
5 à 8 km
1000 à 3000 ft
1500m à 5 km
500 à 1000 ft
800 à 1500m
200 à 500 ft
< 800m
< 200 ft
Symboles :   Orages  Brouillard  Fortes neiges  Fortes précipitations  Vent > 20 kt
SIGMETs :   Divers  Orages  Givrage  Turbulence  Onde Orograph.  Cendres Volcan.






- Altitude de l'aérodrome : 12 ft
- Code IATA : BCN


LEBL - Barcelone

DERNIER METAR :
  • 030130Z VRB02KT 9999 FEW045 09/07 Q1013 NOSIG

METARs EXPIRÉS :
  • 030100Z 30004KT 9999 FEW050 10/07 Q1014 NOSIG
  • 030030Z 30006KT 9999 FEW050 10/08 Q1014 NOSIG
  • 030000Z 30004KT 9999 FEW050 10/08 Q1014 NOSIG
  • 022300Z 33003KT 9999 FEW045 11/08 Q1014 NOSIG

TAF TAF LEBL
Valide du 03 à 00h jusqu'au 04 à 00h UTC


022300Z 0300/0324 34008KT 9999 FEW050 TX17/0312Z TN08/0306Z
BECMG 0309/0311 21010KT



MET'MAP, la Météo Aéronautique d'un coup d'oeil ! - Copyright ORBIFLY Décembre 2007 - Disclaimer

ORBIFLY MET'MAP TEAM :

Programmation & Développement : Alexandra Zaïnal
Sur une idée originale de : Baudouin d'Aumeries
Assistance à la programmation : Marc-Olivier Méhu
Soutien technique & logistique : Manuel Goepfert

Contact : metmap@orbifly.com




SOURCES & CREDITS :

   NOAA